Time;durP1;ratioP1;P1;durP2;ratioP2;P2;SDS_P1;SDS_P2;PMS_P1;PMS_P2;Temp;Humidity;BMP_temperature;BMP_pressure;BME280_temperature;BME280_humidity;BME280_pressure;Samples;Min_cycle;Max_cycle;Signal;HPM_P1;HPM_P2
2022/12/03 00:01:47;;;;;;;14.27;6.85;;;;;;;7.22;100.00;102185.72;5002699;28;20029;-77
2022/12/03 00:04:13;;;;;;;10.43;6.30;;;;;;;7.28;100.00;102192.41;5002858;28;20067;-77
2022/12/03 00:06:39;;;;;;;7.80;4.95;;;;;;;7.19;100.00;102179.72;5002999;28;20479;-77
2022/12/03 00:09:04;;;;;;;13.95;7.78;;;;;;;7.23;100.00;102187.41;5002916;28;20029;-77
2022/12/03 00:11:30;;;;;;;14.52;7.75;;;;;;;7.27;100.00;102191.53;5035276;28;20037;-77
2022/12/03 00:13:56;;;;;;;13.25;7.88;;;;;;;7.28;100.00;102192.41;5002639;28;20148;-77
2022/12/03 00:16:22;;;;;;;15.35;7.70;;;;;;;7.28;100.00;102179.03;5018345;28;20037;-76
2022/12/03 00:18:47;;;;;;;11.13;6.97;;;;;;;7.35;100.00;102190.94;5018701;28;20459;-77
2022/12/03 00:21:13;;;;;;;12.20;6.30;;;;;;;7.38;100.00;102196.06;5018801;28;20490;-77
2022/12/03 00:23:38;;;;;;;13.05;7.40;;;;;;;7.39;100.00;102199.59;5002322;28;20120;-77
2022/12/03 00:26:04;;;;;;;15.50;7.05;;;;;;;7.37;100.00;102199.69;5034442;28;20041;-78
2022/12/03 00:28:30;;;;;;;14.25;6.63;;;;;;;7.35;100.00;102192.75;5018713;28;20041;-78
2022/12/03 00:30:56;;;;;;;12.98;6.07;;;;;;;7.29;100.00;102193.25;5018461;28;20036;-77
2022/12/03 00:33:21;;;;;;;13.18;7.40;;;;;;;7.23;100.00;102192.75;5002040;28;20081;-77
2022/12/03 00:35:47;;;;;;;14.18;7.18;;;;;;;7.20;100.00;102194.81;5002171;28;20533;-77
2022/12/03 00:38:13;;;;;;;12.40;6.35;;;;;;;7.24;100.00;102194.44;5034451;28;20498;-77
2022/12/03 00:40:40;;;;;;;10.20;5.78;;;;;;;7.23;100.00;102189.22;5001755;28;20037;-77
2022/12/03 00:43:06;;;;;;;10.10;6.15;;;;;;;7.23;100.00;102189.22;5034692;28;20037;-77
2022/12/03 00:45:32;;;;;;;9.48;5.70;;;;;;;7.25;100.00;102185.47;5034544;28;20037;-77
2022/12/03 00:47:57;;;;;;;9.02;5.43;;;;;;;7.26;100.00;102184.47;5002062;28;20029;-77
2022/12/03 00:50:23;;;;;;;8.50;5.25;;;;;;;7.29;100.00;102193.25;5002026;28;20498;-77
2022/12/03 00:52:49;;;;;;;8.05;5.20;;;;;;;7.34;100.00;102185.72;5018024;28;20039;-77
2022/12/03 00:55:15;;;;;;;7.85;4.70;;;;;;;7.36;100.00;102183.78;5018175;28;20033;-77
2022/12/03 00:57:41;;;;;;;8.23;4.60;;;;;;;7.37;100.00;102186.31;5034494;28;20037;-77
2022/12/03 01:00:08;;;;;;;8.35;4.72;;;;;;;7.37;100.00;102183.66;5001723;28;20087;-77
2022/12/03 01:02:34;;;;;;;8.63;4.45;;;;;;;7.25;100.00;102169.41;5001395;28;20041;-77
2022/12/03 01:05:00;;;;;;;8.30;3.13;;;;;;;7.40;100.00;102185.22;5001207;28;20498;-76
2022/12/03 01:07:25;;;;;;;5.78;2.65;;;;;;;7.40;100.00;102180.72;5017957;28;20037;-77
2022/12/03 01:09:51;;;;;;;11.63;4.75;;;;;;;7.42;100.00;102186.81;5017824;28;20227;-78
2022/12/03 01:12:17;;;;;;;5.43;3.38;;;;;;;7.46;100.00;102190.09;5001572;28;20425;-77
2022/12/03 01:14:42;;;;;;;5.93;3.22;;;;;;;7.42;100.00;102184.16;5001823;28;20076;-78
2022/12/03 01:17:08;;;;;;;6.65;3.38;;;;;;;7.46;100.00;102182.94;5017619;28;20059;-77
2022/12/03 01:19:34;;;;;;;7.20;3.28;;;;;;;7.43;100.00;102182.31;5034105;28;20034;-78
2022/12/03 01:22:00;;;;;;;7.97;3.15;;;;;;;7.48;100.00;102188.16;5034382;28;20033;-77
2022/12/03 01:24:26;;;;;;;6.68;3.45;;;;;;;7.49;100.00;102193.41;5017446;28;20025;-78
2022/12/03 01:26:52;;;;;;;8.23;3.58;;;;;;;7.53;100.00;102190.47;5017151;28;20041;-77
2022/12/03 01:29:18;;;;;;;7.25;3.42;;;;;;;7.56;100.00;102190.22;5050527;28;20061;-77
2022/12/03 01:34:27;;;;;;;4.40;3.03;;;;;;;7.43;100.00;102199.22;5019863;28;20372;-77
2022/12/03 01:36:53;;;;;;;5.93;3.72;;;;;;;7.35;100.00;102179.38;5000969;28;20048;-77
2022/12/03 01:39:19;;;;;;;8.35;4.00;;;;;;;7.38;100.00;102196.06;5000872;28;20128;-77
2022/12/03 01:41:46;;;;;;;8.95;4.30;;;;;;;7.38;100.00;102197.88;5001217;28;20036;-77
2022/12/03 01:44:22;;;;;;;7.80;3.55;;;;;;;7.37;100.00;102198.84;5033727;28;20108;-78
2022/12/03 01:46:49;;;;;;;5.82;3.78;;;;;;;7.30;100.00;102197.63;5033004;28;20387;-78
2022/12/03 01:49:21;;;;;;;7.93;4.15;;;;;;;7.30;100.00;102193.13;5049910;28;20048;-77
2022/12/03 01:51:48;;;;;;;5.43;3.88;;;;;;;7.24;100.00;102199.78;5033370;28;20033;-77
2022/12/03 01:54:20;;;;;;;8.98;5.05;;;;;;;7.21;100.00;102200.03;5000905;28;20037;-77
2022/12/03 01:56:46;;;;;;;10.02;5.07;;;;;;;7.18;100.00;102202.13;5001028;28;20095;-77
2022/12/03 01:59:17;;;;;;;9.30;5.38;;;;;;;7.02;100.00;102178.38;5017026;28;20030;-77
2022/12/03 02:01:43;;;;;;;9.43;5.10;;;;;;;7.18;100.00;102199.44;5032863;28;20168;-77
2022/12/03 02:04:12;;;;;;;9.43;4.80;;;;;;;7.16;100.00;102199.53;5000329;28;20120;-78
2022/12/03 02:06:37;;;;;;;9.98;5.65;;;;;;;7.13;100.00;102201.63;5000212;28;20060;-77
2022/12/03 02:09:07;;;;;;;8.90;4.82;;;;;;;7.12;100.00;102198.09;5000579;28;20411;-77
2022/12/03 02:11:40;;;;;;;9.82;6.15;;;;;;;7.09;100.00;102197.44;5033198;28;20029;-78
2022/12/03 02:14:09;;;;;;;8.97;5.70;;;;;;;7.07;100.00;102196.75;5033035;28;20132;-77
2022/12/03 02:16:36;;;;;;;10.93;6.10;;;;;;;7.05;100.00;102205.72;5000533;28;20123;-77
2022/12/03 02:19:03;;;;;;;11.82;5.72;;;;;;;7.02;100.00;102205.97;5000513;28;20041;-77
2022/12/03 02:21:45;;;;;;;10.90;5.38;;;;;;;6.93;100.00;102184.41;5000084;28;20041;-77
2022/12/03 02:24:20;;;;;;;11.73;5.83;;;;;;;6.99;100.00;102206.19;5033014;28;20112;-77
2022/12/03 02:26:46;;;;;;;10.57;5.63;;;;;;;6.93;100.00;102201.31;5016791;28;20305;-77
2022/12/03 02:29:12;;;;;;;9.48;5.72;;;;;;;6.90;100.00;102196.19;5032931;28;20072;-77
2022/12/03 02:31:38;;;;;;;9.55;5.72;;;;;;;6.92;100.00;102196.09;5032260;28;20036;-78
2022/12/03 02:34:06;;;;;;;10.20;5.63;;;;;;;6.94;100.00;102188.81;5015975;28;20483;-77
2022/12/03 02:36:33;;;;;;;9.20;5.25;;;;;;;6.96;100.00;102195.75;5016516;28;20087;-77
2022/12/03 02:38:59;;;;;;;11.40;6.05;;;;;;;6.91;100.00;102189.03;5032535;28;20040;-77
2022/12/03 02:44:09;;;;;;;12.88;5.50;;;;;;;6.90;100.00;102185.50;5018781;28;20448;-77
2022/12/03 02:46:35;;;;;;;8.82;5.72;;;;;;;6.90;100.00;102174.78;5000116;28;20136;-77
2022/12/03 02:49:01;;;;;;;12.77;6.80;;;;;;;6.91;100.00;102181.03;5016305;28;20426;-77
2022/12/03 02:51:30;;;;;;;9.93;6.47;;;;;;;6.87;100.00;102183.06;5000580;28;20033;-77
2022/12/03 02:53:56;;;;;;;9.40;5.13;;;;;;;6.77;100.00;102177.56;5016333;28;20065;-77
2022/12/03 02:56:25;;;;;;;17.38;7.47;;;;;;;6.70;100.00;102175.47;4999993;28;20064;-77
2022/12/03 02:58:53;;;;;;;11.23;6.35;;;;;;;6.59;100.00;102178.97;5015711;28;20550;-77
2022/12/03 03:01:18;;;;;;;12.98;6.68;;;;;;;6.51;100.00;102184.00;5016077;28;20037;-77
2022/12/03 03:03:46;;;;;;;11.68;7.38;;;;;;;6.43;100.00;102181.91;5015833;28;20033;-77
2022/12/03 03:06:12;;;;;;;15.07;7.25;;;;;;;6.37;100.00;102187.69;5032628;28;20064;-77
2022/12/03 03:08:39;;;;;;;15.10;7.55;;;;;;;6.31;100.00;102178.31;4999854;28;20095;-77
2022/12/03 03:11:05;;;;;;;16.08;8.55;;;;;;;6.32;100.00;102179.16;4999143;28;20129;-77
2022/12/03 03:13:32;;;;;;;17.00;8.60;;;;;;;6.36;100.00;102178.00;4999368;28;20168;-77
2022/12/03 03:15:58;;;;;;;8.40;6.05;;;;;;;6.42;100.00;102174.00;4999760;28;20037;-77
2022/12/03 03:18:23;;;;;;;12.20;7.05;;;;;;;6.46;100.00;102165.66;5031956;28;20032;-77
2022/12/03 03:20:49;;;;;;;15.38;9.32;;;;;;;6.58;100.00;102172.72;4999743;28;20038;-77
2022/12/03 03:23:18;;;;;;;17.77;9.23;;;;;;;6.56;100.00;102149.75;4999326;28;20537;-78
2022/12/03 03:26:05;;;;;;;14.32;8.45;;;;;;;6.72;100.00;102160.16;5032612;28;20034;-79
2022/12/03 03:28:33;;;;;;;20.75;9.07;;;;;;;6.77;100.00;102163.31;4999230;28;20131;-78
2022/12/03 03:31:01;;;;;;;12.65;7.32;;;;;;;6.85;100.00;102160.06;5048327;28;20038;-78
2022/12/03 03:33:27;;;;;;;14.27;7.18;;;;;;;6.86;100.00;102151.09;4999299;28;20518;-78
2022/12/03 03:35:53;;;;;;;14.13;8.32;;;;;;;6.92;100.00;102155.97;5015826;28;20072;-79
2022/12/03 03:38:19;;;;;;;16.63;8.55;;;;;;;6.93;100.00;102142.50;4999512;28;20038;-77
2022/12/03 03:40:46;;;;;;;17.23;8.57;;;;;;;6.98;100.00;102150.13;5015401;28;20098;-77
2022/12/03 03:43:12;;;;;;;15.35;7.78;;;;;;;7.01;100.00;102150.78;5015281;28;20464;-78
2022/12/03 03:45:38;;;;;;;17.17;9.45;;;;;;;7.02;100.00;102140.94;5015155;28;20038;-78
2022/12/03 03:48:04;;;;;;;16.52;8.40;;;;;;;7.08;100.00;102142.28;5032195;28;20025;-79
2022/12/03 03:50:30;;;;;;;20.45;10.75;;;;;;;7.13;100.00;102140.09;4999339;28;20387;-79
2022/12/03 03:52:56;;;;;;;14.57;7.97;;;;;;;7.13;100.00;102135.59;4999274;28;20041;-78
2022/12/03 03:55:22;;;;;;;14.02;7.20;;;;;;;7.14;100.00;102136.44;4999267;28;20045;-78
2022/12/03 03:57:48;;;;;;;21.70;10.10;;;;;;;7.17;100.00;102131.72;4999033;28;20390;-78
2022/12/03 04:00:14;;;;;;;13.25;7.07;;;;;;;7.18;100.00;102136.09;4999255;28;20044;-79
2022/12/03 04:02:40;;;;;;;18.05;10.70;;;;;;;7.19;100.00;102128.91;4999278;28;20038;-78
2022/12/03 04:05:08;;;;;;;19.08;9.65;;;;;;;7.17;100.00;102123.69;4998851;28;20030;-78
2022/12/03 04:07:34;;;;;;;21.70;10.23;;;;;;;7.13;100.00;102116.88;5031975;28;20497;-78
2022/12/03 04:12:54;;;;;;;22.02;9.68;;;;;;;7.15;100.00;102124.78;5001810;28;20034;-78
2022/12/03 04:12:54;;;;;;;16.77;9.13;;;;;;;7.13;100.00;102121.38;5021711;28;20025;-79
2022/12/03 04:15:20;;;;;;;19.50;8.93;;;;;;;7.14;100.00;102123.06;5003975;28;20057;-78
2022/12/03 04:18:41;;;;;;;24.25;11.05;;;;;;;7.13;100.00;102118.69;5034924;28;20475;-78
2022/12/03 04:20:32;;;;;;;19.90;10.05;;;;;;;6.97;100.00;102103.84;5021616;28;20044;-78
2022/12/03 04:22:57;;;;;;;24.75;11.27;;;;;;;7.02;100.00;102117.69;5002712;28;20034;-79
2022/12/03 04:30:52;;;;;;;19.27;10.38;;;;;;;6.81;100.00;102106.84;5008063;28;20073;-78
2022/12/03 04:36:02;;;;;;;21.80;10.73;;;;;;;6.78;100.00;102109.75;5035242;28;20073;-78
2022/12/03 04:38:27;;;;;;;20.48;10.77;;;;;;;6.78;100.00;102101.75;5019382;28;20574;-78
2022/12/03 04:41:05;;;;;;;19.40;9.35;;;;;;;6.77;100.00;102097.38;5018877;28;20075;-77
2022/12/03 04:43:33;;;;;;;19.65;8.25;;;;;;;6.78;100.00;102100.91;5035734;28;20444;-77
2022/12/03 04:46:00;;;;;;;24.67;11.98;;;;;;;6.80;100.00;102105.16;5035002;28;20060;-77
2022/12/03 04:48:26;;;;;;;24.83;11.95;;;;;;;6.79;100.00;102103.44;5018354;28;20092;-77
2022/12/03 04:50:52;;;;;;;25.85;10.90;;;;;;;6.83;100.00;102102.25;5002049;28;20033;-77
2022/12/03 04:53:18;;;;;;;25.85;11.10;;;;;;;6.80;100.00;102094.47;5034671;28;20037;-77
2022/12/03 04:55:43;;;;;;;23.23;12.48;;;;;;;6.88;100.00;102096.53;5001778;28;20191;-78
2022/12/03 04:58:12;;;;;;;19.40;10.80;;;;;;;6.89;100.00;102095.56;5018267;28;20041;-78
2022/12/03 05:00:37;;;;;;;23.73;11.95;;;;;;;6.91;100.00;102098.97;5018405;28;20091;-78
2022/12/03 05:03:03;;;;;;;22.70;10.77;;;;;;;6.91;100.00;102090.94;5001906;28;20467;-77
2022/12/03 05:05:29;;;;;;;23.63;10.90;;;;;;;6.96;100.00;102085.22;5001583;28;20037;-78
2022/12/03 05:07:54;;;;;;;27.25;11.10;;;;;;;6.96;100.00;102082.56;5001723;28;20038;-78
2022/12/03 05:10:20;;;;;;;19.70;8.50;;;;;;;7.04;100.00;102082.81;5017836;28;20025;-78
2022/12/03 05:12:46;;;;;;;24.73;10.40;;;;;;;7.09;100.00;102079.78;5001638;28;20088;-78
2022/12/03 05:15:11;;;;;;;24.13;11.48;;;;;;;7.13;100.00;102081.25;5001590;28;20434;-77
2022/12/03 05:17:37;;;;;;;17.63;9.13;;;;;;;7.13;100.00;102079.41;5017818;28;20033;-78
2022/12/03 05:22:47;;;;;;;22.40;10.98;;;;;;;7.13;100.00;102073.22;5034552;28;20041;-77
2022/12/03 05:25:13;;;;;;;24.95;13.13;;;;;;;7.09;100.00;102072.59;5017432;28;20132;-78
2022/12/03 05:27:39;;;;;;;22.02;10.95;;;;;;;6.99;100.00;102072.47;5017742;28;20041;-78
2022/12/03 05:30:05;;;;;;;21.33;11.48;;;;;;;6.94;100.00;102069.31;5001400;28;20029;-77
2022/12/03 05:32:31;;;;;;;18.73;9.05;;;;;;;6.95;100.00;102064.81;5001409;28;20061;-78
2022/12/03 05:34:57;;;;;;;21.27;10.18;;;;;;;6.99;100.00;102066.28;5001124;28;20438;-78
2022/12/03 05:37:22;;;;;;;17.55;9.57;;;;;;;7.04;100.00;102058.75;5033152;28;20467;-80
2022/12/03 05:39:48;;;;;;;16.20;8.40;;;;;;;7.01;100.00;102049.16;5017019;28;20113;-78
2022/12/03 05:44:58;;;;;;;17.70;9.60;;;;;;;6.98;100.00;102045.84;5033144;28;20105;-78
2022/12/03 05:47:24;;;;;;;20.42;9.95;;;;;;;6.95;100.00;102038.91;5000757;28;20136;-78
2022/12/03 05:49:49;;;;;;;21.90;11.15;;;;;;;6.90;100.00;102050.94;5016936;28;20037;-78
2022/12/03 05:52:15;;;;;;;17.85;8.98;;;;;;;6.88;100.00;102043.06;5000684;28;20033;-79
2022/12/03 05:54:41;;;;;;;24.00;9.93;;;;;;;6.88;100.00;102043.06;5033133;28;20021;-78
2022/12/03 05:57:06;;;;;;;17.67;8.77;;;;;;;6.84;100.00;102041.59;5016534;28;20060;-78
2022/12/03 05:59:32;;;;;;;17.08;8.00;;;;;;;6.81;100.00;102047.19;5034483;28;20033;-79
2022/12/03 06:01:57;;;;;;;15.30;7.68;;;;;;;6.78;100.00;102047.44;5016868;28;20045;-79
2022/12/03 06:04:23;;;;;;;13.07;6.68;;;;;;;6.79;100.00;102046.44;5032788;28;20052;-78
2022/12/03 06:06:49;;;;;;;18.35;9.35;;;;;;;6.73;100.00;102041.59;5016782;28;20037;-79
2022/12/03 06:09:14;;;;;;;18.67;9.18;;;;;;;6.60;100.00;102029.16;5016878;28;20120;-79
2022/12/03 06:11:40;;;;;;;15.25;8.45;;;;;;;6.51;100.00;102037.91;5000520;28;20029;-79
2022/12/03 06:14:06;;;;;;;15.13;8.48;;;;;;;6.40;100.00;102035.19;5000546;28;20033;-79
2022/12/03 06:16:31;;;;;;;14.00;6.90;;;;;;;6.28;100.00;102036.13;5016648;28;20080;-78
2022/12/03 06:18:57;;;;;;;21.42;9.98;;;;;;;6.06;100.00;102019.06;5049506;28;20079;-79
2022/12/03 06:21:23;;;;;;;19.63;9.48;;;;;;;5.77;100.00;102028.34;5016240;28;20033;-79
2022/12/03 06:23:48;;;;;;;20.75;10.73;;;;;;;5.43;100.00;102031.69;5000075;28;20039;-79
2022/12/03 06:26:14;;;;;;;20.67;9.77;;;;;;;5.16;100.00;102028.31;5000213;28;20044;-79
2022/12/03 06:28:45;;;;;;;23.02;10.43;;;;;;;4.90;100.00;102025.69;5032551;28;20076;-78
2022/12/03 06:31:12;;;;;;;22.55;9.02;;;;;;;4.66;100.00;102027.38;5032669;28;20029;-79
2022/12/03 06:33:37;;;;;;;17.15;8.00;;;;;;;4.46;100.00;102029.63;4999854;28;20442;-78
2022/12/03 06:36:04;;;;;;;18.65;9.20;;;;;;;4.28;100.00;102029.06;5016391;28;20045;-79
2022/12/03 06:38:29;;;;;;;22.35;9.40;;;;;;;4.16;100.00;102027.25;5048817;28;20025;-79
2022/12/03 06:40:55;;;;;;;21.20;9.77;;;;;;;4.12;100.00;102018.59;5016224;28;20037;-79
2022/12/03 06:43:21;;;;;;;21.95;10.15;;;;;;;3.99;100.00;102016.84;4999610;28;20025;-79
2022/12/03 06:45:46;;;;;;;23.88;10.43;;;;;;;3.99;100.00;102030.16;5015674;28;20100;-80
2022/12/03 06:48:12;;;;;;;18.40;10.55;;;;;;;4.00;100.00;102026.56;4999795;28;20128;-78
2022/12/03 06:50:38;;;;;;;20.42;9.80;;;;;;;4.03;100.00;102023.69;5032044;28;20026;-79
2022/12/03 06:53:03;;;;;;;22.92;10.38;;;;;;;4.13;100.00;102024.78;5032210;28;20034;-79
2022/12/03 06:55:29;;;;;;;17.15;8.20;;;;;;;4.22;100.00;102028.63;4999538;28;20475;-79
2022/12/03 06:57:55;;;;;;;27.52;12.20;;;;;;;4.30;100.00;102029.81;5032647;28;20087;-79
2022/12/03 07:00:21;;;;;;;24.48;11.00;;;;;;;4.32;100.00;102032.38;5015571;28;20467;-78
2022/12/03 07:02:46;;;;;;;26.02;11.00;;;;;;;4.32;100.00;102025.25;4999500;28;20114;-79
2022/12/03 07:05:12;;;;;;;25.88;11.10;;;;;;;4.28;100.00;102034.38;4999249;28;20025;-80
2022/12/03 07:07:38;;;;;;;33.08;13.10;;;;;;;4.31;100.00;102041.31;4999675;28;20080;-78
2022/12/03 07:10:04;;;;;;;29.33;12.75;;;;;;;4.40;100.00;102041.56;4999504;28;20061;-79
2022/12/03 07:12:31;;;;;;;26.08;11.55;;;;;;;4.54;100.00;102045.09;5015668;28;20037;-78
2022/12/03 07:14:57;;;;;;;29.52;12.75;;;;;;;4.71;100.00;102044.78;5031219;28;20056;-78
2022/12/03 07:17:23;;;;;;;27.60;11.60;;;;;;;4.85;100.00;102052.66;5015690;28;20099;-78
2022/12/03 07:19:49;;;;;;;29.52;12.35;;;;;;;5.00;100.00;102049.88;4999098;28;20105;-78
2022/12/03 07:22:14;;;;;;;30.15;12.38;;;;;;;5.17;100.00;102052.22;4999389;28;20030;-78
2022/12/03 07:24:40;;;;;;;26.88;12.90;;;;;;;5.31;100.00;102050.38;4999228;28;20033;-78
2022/12/03 07:27:06;;;;;;;20.25;11.05;;;;;;;5.46;100.00;102055.47;4999133;28;20084;-78
2022/12/03 07:29:32;;;;;;;35.95;16.60;;;;;;;5.63;100.00;102054.22;5015798;28;20041;-78
2022/12/03 07:31:57;;;;;;;39.75;15.23;;;;;;;5.71;100.00;102051.84;4999594;28;20033;-79
2022/12/03 07:34:23;;;;;;;32.85;15.55;;;;;;;5.73;100.00;102049.91;5015690;28;20481;-79
2022/12/03 07:36:49;;;;;;;33.97;14.93;;;;;;;5.78;100.00;102048.75;5015535;28;20459;-79
2022/12/03 07:39:15;;;;;;;29.35;12.35;;;;;;;5.70;100.00;102041.31;5015623;28;20041;-78
2022/12/03 07:41:40;;;;;;;15.10;6.50;;;;;;;5.79;100.00;102053.94;5048500;28;20037;-79
2022/12/03 07:44:09;;;;;;;26.98;12.23;;;;;;;5.84;100.00;102046.47;5033270;28;20030;-78
2022/12/03 07:46:34;;;;;;;29.70;13.38;;;;;;;5.80;100.00;102038.81;5002881;28;20053;-78
2022/12/03 07:49:00;;;;;;;30.00;13.25;;;;;;;5.80;100.00;102045.00;5003366;28;20442;-78
2022/12/03 07:51:26;;;;;;;30.08;14.45;;;;;;;5.81;100.00;102045.84;5002883;28;20490;-78
2022/12/03 07:53:51;;;;;;;32.80;14.57;;;;;;;5.79;100.00;102045.09;5003135;28;20034;-78
2022/12/03 07:56:17;;;;;;;18.13;9.13;;;;;;;5.85;100.00;102047.34;5018936;28;20383;-78
2022/12/03 07:58:43;;;;;;;29.13;14.10;;;;;;;5.85;100.00;102042.00;5002920;28;20141;-78
2022/12/03 08:01:09;;;;;;;27.73;11.50;;;;;;;5.86;100.00;102035.69;5002461;28;20073;-78
2022/12/03 08:03:35;;;;;;;28.33;13.90;;;;;;;5.86;100.00;102039.19;5018705;28;20030;-77
2022/12/03 08:06:00;;;;;;;30.88;14.02;;;;;;;5.82;100.00;102032.41;5019223;28;20045;-79
2022/12/03 08:08:26;;;;;;;28.33;13.13;;;;;;;5.84;100.00;102029.59;5019017;28;20029;-79
2022/12/03 08:10:52;;;;;;;22.45;11.02;;;;;;;5.87;100.00;102034.72;5002828;28;20488;-79
2022/12/03 08:13:20;;;;;;;30.17;13.63;;;;;;;5.82;100.00;102023.50;5002484;28;20021;-79
2022/12/03 08:15:45;;;;;;;17.95;9.52;;;;;;;5.96;100.00;102028.72;5002656;28;20035;-79
2022/12/03 08:18:17;;;;;;;28.83;13.90;;;;;;;5.97;100.00;102029.56;5018916;28;20041;-78
2022/12/03 08:20:48;;;;;;;28.95;13.20;;;;;;;5.81;100.00;102001.31;5018956;28;20057;-78
2022/12/03 08:23:21;;;;;;;31.75;12.82;;;;;;;6.01;100.00;102036.41;5034183;28;20395;-79
2022/12/03 08:25:48;;;;;;;29.20;14.65;;;;;;;5.98;100.00;102028.59;5002606;28;20554;-78
2022/12/03 08:28:21;;;;;;;31.25;13.05;;;;;;;5.96;100.00;102034.06;5018186;28;20396;-79
2022/12/03 08:31:00;;;;;;;31.83;13.60;;;;;;;5.81;100.00;102008.47;5002469;28;20035;-78
2022/12/03 08:33:34;;;;;;;27.05;12.35;;;;;;;5.96;100.00;102031.41;5018710;28;20048;-78
2022/12/03 08:36:07;;;;;;;27.50;13.38;;;;;;;5.98;100.00;102036.59;5035167;28;20083;-78
2022/12/03 08:38:32;;;;;;;33.47;11.75;;;;;;;6.00;100.00;102034.69;5034518;28;20033;-78
2022/12/03 08:40:58;;;;;;;53.85;15.38;;;;;;;5.94;100.00;102022.66;5002012;28;20041;-78
2022/12/03 08:43:26;;;;;;;25.67;10.55;;;;;;;5.97;100.00;102024.25;5018350;28;20042;-78
2022/12/03 08:45:54;;;;;;;31.77;13.80;;;;;;;5.98;100.00;102021.47;5001883;28;20029;-79
2022/12/03 08:48:25;;;;;;;30.50;12.60;;;;;;;5.99;100.00;102020.50;5001647;28;20041;-78
2022/12/03 08:50:54;;;;;;;31.10;14.10;;;;;;;5.99;100.00;102024.97;5018358;28;20040;-78
2022/12/03 08:53:31;;;;;;;26.52;13.93;;;;;;;6.01;100.00;102026.56;5034317;28;20034;-79
2022/12/03 08:56:27;;;;;;;25.13;13.02;;;;;;;6.05;100.00;102024.50;5016911;28;20061;-80
2022/12/03 08:59:25;;;;;;;29.40;14.07;;;;;;;6.07;100.00;102025.25;5034546;28;20029;-78
2022/12/03 09:01:54;;;;;;;28.90;14.05;;;;;;;6.08;100.00;102021.59;5001860;28;20079;-79
2022/12/03 09:04:26;;;;;;;28.38;13.52;;;;;;;6.02;100.00;102014.91;5017808;28;20104;-79
2022/12/03 09:06:53;;;;;;;32.67;13.82;;;;;;;6.09;100.00;102026.84;5017596;28;20055;-79
2022/12/03 09:09:18;;;;;;;33.15;14.98;;;;;;;6.10;100.00;102019.69;5017443;28;20387;-79
2022/12/03 09:11:45;;;;;;;34.42;16.50;;;;;;;6.12;100.00;102013.25;5017699;28;20037;-79
2022/12/03 09:14:10;;;;;;;30.45;13.65;;;;;;;6.14;100.00;102018.50;5001488;28;20467;-80
2022/12/03 09:16:36;;;;;;;31.77;14.60;;;;;;;6.14;100.00;102011.31;5033734;28;20037;-79
2022/12/03 09:19:03;;;;;;;30.15;13.75;;;;;;;6.13;100.00;102014.94;5017687;28;20086;-79
2022/12/03 09:21:28;;;;;;;22.35;10.25;;;;;;;6.15;100.00;102004.16;5017341;28;20033;-79
2022/12/03 09:23:54;;;;;;;34.85;14.90;;;;;;;6.16;100.00;102004.03;5017467;28;20505;-79
2022/12/03 09:26:20;;;;;;;37.58;16.90;;;;;;;6.14;100.00;101989.13;5001303;28;20041;-78
2022/12/03 09:28:47;;;;;;;40.13;17.08;;;;;;;6.11;100.00;101990.19;5017636;28;20132;-79
2022/12/03 09:31:14;;;;;;;29.92;15.00;;;;;;;6.11;100.00;101990.19;5034711;28;20033;-79
2022/12/03 09:33:39;;;;;;;35.05;15.30;;;;;;;6.12;100.00;101989.22;5017259;28;20056;-78
2022/12/03 09:36:05;;;;;;;30.50;13.90;;;;;;;6.13;100.00;101987.41;5017533;28;20459;-78
2022/12/03 09:38:31;;;;;;;32.35;15.38;;;;;;;6.13;100.00;101988.25;5034647;28;20056;-79
2022/12/03 09:40:58;;;;;;;29.25;13.82;;;;;;;6.16;100.00;101990.66;5017038;28;20045;-78
2022/12/03 09:43:24;;;;;;;31.83;13.82;;;;;;;6.11;100.00;101974.19;5032009;28;20038;-78
2022/12/03 09:45:49;;;;;;;27.35;11.15;;;;;;;6.23;100.00;101987.56;5016619;28;20095;-78
2022/12/03 09:48:17;;;;;;;31.10;14.27;;;;;;;6.28;100.00;101983.56;5017106;28;20371;-79
2022/12/03 09:50:43;;;;;;;33.72;15.07;;;;;;;6.33;100.00;101983.22;5033448;28;20033;-79
2022/12/03 09:53:15;;;;;;;32.28;14.95;;;;;;;6.39;100.00;101980.06;5017000;28;20384;-79
2022/12/03 09:55:44;;;;;;;33.20;14.82;;;;;;;6.39;100.00;101972.03;5016722;28;20025;-80
2022/12/03 09:58:15;;;;;;;25.02;12.68;;;;;;;6.55;100.00;101977.88;5017496;28;20507;-79
2022/12/03 10:00:43;;;;;;;29.42;12.98;;;;;;;6.68;100.00;101975.13;5016793;28;20427;-79
2022/12/03 10:03:13;;;;;;;28.90;13.95;;;;;;;6.88;100.00;101973.56;5016944;28;20119;-78
2022/12/03 10:05:39;;;;;;;32.28;14.48;;;;;;;7.12;100.00;101968.06;5017043;28;20033;-79
2022/12/03 10:08:13;;;;;;;34.90;15.02;;;;;;;7.41;100.00;101975.53;5032703;28;20374;-78
2022/12/03 10:10:39;;;;;;;15.98;8.13;;;;;;;7.59;100.00;101978.53;5033203;28;20026;-78
2022/12/03 10:13:06;;;;;;;30.00;14.07;;;;;;;7.74;100.00;101971.06;5033146;28;20120;-78
2022/12/03 10:15:32;;;;;;;23.40;13.20;;;;;;;7.92;100.00;101970.38;5033228;28;20462;-78
2022/12/03 10:18:14;;;;;;;16.77;9.20;;;;;;;8.03;100.00;101980.19;5032889;28;20108;-78
2022/12/03 10:20:40;;;;;;;25.58;13.18;;;;;;;8.17;100.00;101968.28;5016848;28;20132;-79
2022/12/03 10:23:05;;;;;;;23.55;12.18;;;;;;;8.29;100.00;101969.09;5034297;28;20060;-78
2022/12/03 10:25:31;;;;;;;25.42;11.95;;;;;;;8.49;100.00;101972.75;5016495;28;20029;-76
2022/12/03 10:28:02;;;;;;;24.08;12.60;;;;;;;8.64;100.00;101965.22;5033889;28;20025;-76
2022/12/03 10:30:28;;;;;;;29.05;16.40;;;;;;;8.72;100.00;101963.56;5000341;28;20030;-76
2022/12/03 10:32:56;;;;;;;32.80;14.85;;;;;;;8.52;100.00;101927.78;5032951;28;20092;-77
2022/12/03 10:35:26;;;;;;;27.10;13.55;;;;;;;8.72;100.00;101963.56;4984083;28;20502;-77
2022/12/03 10:37:59;;;;;;;18.85;10.48;;;;;;;8.69;100.00;101957.63;5016095;28;20117;-76
2022/12/03 10:40:31;;;;;;;14.98;10.07;;;;;;;8.73;100.00;101964.41;5032689;28;20041;-76
2022/12/03 10:43:19;;;;;;;27.00;14.02;;;;;;;8.87;100.00;101971.25;5016326;28;20132;-76
2022/12/03 10:45:44;;;;;;;17.15;10.57;;;;;;;8.73;100.00;101929.53;5033535;28;20164;-76
2022/12/03 10:48:26;;;;;;;24.63;13.20;;;;;;;8.86;100.00;101953.44;5021650;28;20081;-76
2022/12/03 10:50:54;;;;;;;23.15;12.05;;;;;;;8.60;100.00;101924.44;5032229;28;20038;-76
2022/12/03 10:53:23;;;;;;;16.55;8.82;;;;;;;8.71;100.00;101959.19;5032403;28;20467;-76
2022/12/03 10:55:50;;;;;;;24.77;10.90;;;;;;;8.59;100.00;101957.56;4999722;28;20052;-76
2022/12/03 10:58:22;;;;;;;22.40;12.55;;;;;;;8.35;100.00;101934.56;4999583;28;20048;-76
2022/12/03 11:00:49;;;;;;;23.98;11.75;;;;;;;8.36;100.00;101951.47;4999727;28;20470;-76
2022/12/03 11:03:18;;;;;;;23.65;12.73;;;;;;;8.30;100.00;101957.38;5032281;28;20041;-76
2022/12/03 11:05:44;;;;;;;23.38;11.65;;;;;;;8.26;100.00;101951.44;4999914;28;20479;-76
2022/12/03 11:08:21;;;;;;;24.70;12.20;;;;;;;8.25;100.00;101941.69;5032381;28;20037;-77
2022/12/03 11:10:58;;;;;;;23.02;12.32;;;;;;;8.18;100.00;101932.50;4999650;28;20041;-77
2022/12/03 11:13:27;;;;;;;26.05;12.23;;;;;;;8.15;100.00;101933.59;5032346;28;20029;-77
2022/12/03 11:15:52;;;;;;;20.67;10.60;;;;;;;8.16;100.00;101934.44;5032550;28;20498;-76
2022/12/03 11:18:36;;;;;;;24.10;11.90;;;;;;;8.19;100.00;101939.53;5015342;28;20030;-76
2022/12/03 11:21:09;;;;;;;26.20;14.15;;;;;;;8.14;100.00;101944.44;5033480;28;20037;-76
2022/12/03 11:23:44;;;;;;;21.92;11.95;;;;;;;8.09;100.00;101938.63;4999444;28;20033;-76
2022/12/03 11:26:29;;;;;;;22.35;10.82;;;;;;;8.06;100.00;101934.38;5031785;28;20365;-76
2022/12/03 11:28:56;;;;;;;25.17;12.27;;;;;;;8.06;100.00;101928.19;5032319;28;20034;-75
2022/12/03 11:31:43;;;;;;;13.52;8.20;;;;;;;8.09;100.00;101939.47;4999450;28;20029;-76
2022/12/03 11:34:18;;;;;;;25.45;11.35;;;;;;;8.07;100.00;101924.50;5032268;28;20065;-76
2022/12/03 11:37:09;;;;;;;23.33;12.10;;;;;;;8.09;100.00;101926.06;5032160;28;20484;-76